createdAt,value
2022-08-17T00:01:55.786Z,99768.95
2022-08-17T00:04:32.761Z,99766.45
2022-08-17T00:07:09.968Z,99773.22
2022-08-17T00:09:48.463Z,99770.51
2022-08-17T00:12:44.340Z,99772.10
2022-08-17T00:15:30.085Z,99777.85
2022-08-17T00:18:58.206Z,99778.88
2022-08-17T00:21:56.393Z,99775.19
2022-08-17T00:24:36.885Z,99770.10
2022-08-17T00:27:20.219Z,99770.17
2022-08-17T00:29:51.305Z,99769.16
2022-08-17T00:33:12.570Z,99768.50
2022-08-17T00:35:27.978Z,99769.67
2022-08-17T00:37:56.413Z,99771.27
2022-08-17T00:40:44.934Z,99770.50
2022-08-17T00:43:45.737Z,99774.52
2022-08-17T00:46:35.011Z,99777.79
2022-08-17T00:49:25.104Z,99775.47
2022-08-17T00:52:11.632Z,99772.95
2022-08-17T00:54:51.768Z,99770.57
2022-08-17T00:57:31.223Z,99766.41
2022-08-17T01:00:12.636Z,99770.91
2022-08-17T01:02:58.645Z,99773.08
2022-08-17T01:05:42.730Z,99774.48
2022-08-17T01:08:19.458Z,99775.40
2022-08-17T01:11:01.962Z,99774.58
2022-08-17T01:13:52.289Z,99776.80
2022-08-17T01:16:48.701Z,99780.62
2022-08-17T01:19:34.191Z,99780.36
2022-08-17T01:22:17.729Z,99780.59
2022-08-17T01:24:57.080Z,99780.50
2022-08-17T01:27:30.071Z,99785.80
2022-08-17T01:30:00.471Z,99790.17
2022-08-17T01:33:04.503Z,99786.77
2022-08-17T01:35:49.251Z,99788.33
2022-08-17T01:38:33.188Z,99792.11
2022-08-17T01:41:33.393Z,99791.67
2022-08-17T01:44:23.800Z,99791.16
2022-08-17T01:46:59.713Z,99790.27
2022-08-17T01:49:39.041Z,99786.92
2022-08-17T01:52:40.710Z,99787.41
2022-08-17T01:55:32.887Z,99787.58
2022-08-17T01:58:26.725Z,99785.90
2022-08-17T02:01:11.688Z,99786.16
2022-08-17T02:03:59.396Z,99788.70
2022-08-17T02:06:54.066Z,99794.55
2022-08-17T02:09:29.994Z,99792.85
2022-08-17T02:12:39.105Z,99796.23
2022-08-17T02:15:02.787Z,99795.72
2022-08-17T02:17:40.909Z,99799.89
2022-08-17T02:20:14.113Z,99796.58
2022-08-17T02:23:08.939Z,99797.20
2022-08-17T02:25:53.177Z,99797.02
2022-08-17T02:28:33.984Z,99797.39
2022-08-17T02:31:19.694Z,99789.36
2022-08-17T02:34:26.764Z,99791.70
2022-08-17T02:37:15.329Z,99791.16
2022-08-17T02:39:55.392Z,99791.53
2022-08-17T02:42:38.912Z,99788.69
2022-08-17T02:45:12.454Z,99793.70
2022-08-17T02:47:46.674Z,99796.75
2022-08-17T02:50:24.078Z,99796.77
2022-08-17T02:53:04.567Z,99801.84
2022-08-17T02:55:50.410Z,99797.17
2022-08-17T02:58:34.514Z,99804.35
2022-08-17T03:01:33.332Z,99805.80
2022-08-17T03:04:03.213Z,99808.40
2022-08-17T03:06:53.166Z,99808.27
2022-08-17T03:09:31.942Z,99805.08
2022-08-17T03:12:21.121Z,99807.37
2022-08-17T03:15:07.225Z,99804.92
2022-08-17T03:17:46.802Z,99806.40
2022-08-17T03:20:18.093Z,99807.27
2022-08-17T03:23:06.989Z,99810.31
2022-08-17T03:25:49.838Z,99810.16
2022-08-17T03:28:36.715Z,99817.35
2022-08-17T03:31:22.660Z,99820.40
2022-08-17T03:33:56.082Z,99825.20
2022-08-17T03:36:36.747Z,99817.95
2022-08-17T03:39:20.890Z,99819.48
2022-08-17T03:42:03.498Z,99824.34
2022-08-17T03:44:41.214Z,99830.07
2022-08-17T03:47:27.991Z,99830.82
2022-08-17T03:50:14.725Z,99832.95
2022-08-17T03:53:08.909Z,99833.98
2022-08-17T03:55:57.213Z,99833.09
2022-08-17T03:58:29.338Z,99838.17
2022-08-17T04:01:07.213Z,99840.73
2022-08-17T04:03:57.750Z,99840.23
2022-08-17T04:06:50.617Z,99842.39
2022-08-17T04:09:24.689Z,99848.84
2022-08-17T04:12:00.268Z,99852.20
2022-08-17T04:15:00.516Z,99852.67
2022-08-17T04:17:35.677Z,99854.26
2022-08-17T04:20:15.730Z,99856.71
2022-08-17T04:23:03.076Z,99855.40
2022-08-17T04:25:44.310Z,99852.20
2022-08-17T04:28:37.674Z,99850.54
2022-08-17T04:31:12.347Z,99853.00
2022-08-17T04:33:46.322Z,99845.27
2022-08-17T04:36:17.049Z,99843.46
2022-08-17T04:38:58.178Z,99843.58
2022-08-17T04:41:44.742Z,99847.32
2022-08-17T04:44:27.280Z,99841.29
2022-08-17T04:47:26.435Z,99839.23
2022-08-17T04:50:05.521Z,99839.64
2022-08-17T04:52:46.073Z,99844.91
2022-08-17T04:55:26.042Z,99848.46
2022-08-17T04:58:11.454Z,99847.33
2022-08-17T05:00:45.924Z,99851.56
2022-08-17T05:03:19.023Z,99851.67
2022-08-17T05:05:54.021Z,99852.17
2022-08-17T05:08:22.098Z,99847.67
2022-08-17T05:11:11.363Z,99857.17
2022-08-17T05:13:50.934Z,99856.19
2022-08-17T05:16:31.458Z,99856.15
2022-08-17T05:19:31.664Z,99855.01
2022-08-17T05:22:40.093Z,99850.11
2022-08-17T05:25:49.275Z,99851.50
2022-08-17T05:28:27.998Z,99856.98
2022-08-17T05:31:13.102Z,99857.89
2022-08-17T05:34:00.291Z,99859.14
2022-08-17T05:36:41.658Z,99861.55
2022-08-17T05:39:27.814Z,99863.37
2022-08-17T05:42:16.498Z,99861.64
2022-08-17T05:44:56.158Z,99863.77
2022-08-17T05:47:33.907Z,99864.80
2022-08-17T05:50:09.497Z,99872.27
2022-08-17T05:52:57.541Z,99871.15
2022-08-17T05:56:02.215Z,99867.90
2022-08-17T05:58:46.202Z,99866.14
2022-08-17T06:01:32.768Z,99870.58
2022-08-17T06:04:27.254Z,99872.50
2022-08-17T06:07:22.142Z,99868.66
2022-08-17T06:10:13.448Z,99867.75
2022-08-17T06:13:15.747Z,99869.13
2022-08-17T06:16:33.270Z,99877.45
2022-08-17T06:19:34.547Z,99874.61
2022-08-17T06:22:13.104Z,99877.64
2022-08-17T06:25:29.656Z,99881.65
2022-08-17T06:28:02.520Z,99885.83
2022-08-17T06:31:22.506Z,99891.05
2022-08-17T06:34:21.431Z,99893.27
2022-08-17T06:37:15.993Z,99890.56
2022-08-17T06:39:57.968Z,99890.02
2022-08-17T06:43:02.863Z,99890.70
2022-08-17T06:46:06.635Z,99892.03
2022-08-17T06:48:59.311Z,99892.20
2022-08-17T06:51:36.583Z,99891.70
2022-08-17T06:54:25.387Z,99893.12
2022-08-17T06:57:14.431Z,99894.60
2022-08-17T07:00:03.782Z,99892.91
2022-08-17T07:02:57.196Z,99887.58
2022-08-17T07:05:42.423Z,99888.55
2022-08-17T07:08:35.571Z,99883.91
2022-08-17T07:11:06.112Z,99887.42
2022-08-17T07:13:41.171Z,99889.75
2022-08-17T07:16:34.919Z,99896.17
2022-08-17T07:19:13.679Z,99897.14
2022-08-17T07:21:52.733Z,99900.55
2022-08-17T07:24:37.674Z,99904.70
2022-08-17T07:27:31.873Z,99900.27
2022-08-17T07:30:26.225Z,99901.34
2022-08-17T07:33:13.433Z,99902.06
2022-08-17T07:35:57.418Z,99899.84
2022-08-17T07:38:55.334Z,99907.34
2022-08-17T07:41:53.129Z,99904.45
2022-08-17T07:45:00.352Z,99896.76
2022-08-17T07:47:55.850Z,99893.34
2022-08-17T07:50:53.846Z,99891.15
2022-08-17T07:56:34.786Z,99894.64
2022-08-17T07:59:14.559Z,99894.78
2022-08-17T08:01:44.872Z,99895.14
2022-08-17T08:07:50.230Z,99897.38
2022-08-17T08:10:30.383Z,99902.17
2022-08-17T08:13:16.361Z,99897.38
2022-08-17T08:15:58.980Z,99895.59
2022-08-17T08:18:58.950Z,99893.69
2022-08-17T08:21:47.411Z,99894.18
2022-08-17T08:24:32.647Z,99894.27
2022-08-17T08:27:27.078Z,99902.80
2022-08-17T08:30:10.819Z,99907.19
2022-08-17T08:32:57.572Z,99910.52
2022-08-17T08:39:20.701Z,99915.56
2022-08-17T08:42:16.171Z,99911.87
2022-08-17T08:45:04.784Z,99908.09
2022-08-17T08:47:38.958Z,99906.79
2022-08-17T08:50:37.437Z,99901.58
2022-08-17T08:53:26.023Z,99901.34
2022-08-17T08:56:04.921Z,99899.48
2022-08-17T08:58:58.589Z,99891.34
2022-08-17T09:01:42.719Z,99889.92
2022-08-17T09:04:28.687Z,99891.92
2022-08-17T09:07:21.876Z,99895.66
2022-08-17T09:10:18.390Z,99890.27
2022-08-17T09:13:09.929Z,99892.25
2022-08-17T09:16:06.648Z,99887.99
2022-08-17T09:19:01.893Z,99894.88
2022-08-17T09:21:49.302Z,99894.00
2022-08-17T09:24:36.690Z,99889.23
2022-08-17T09:27:36.327Z,99894.08
2022-08-17T09:30:18.093Z,99898.00
2022-08-17T09:32:54.926Z,99899.80
2022-08-17T09:35:36.947Z,99905.49
2022-08-17T09:38:32.563Z,99903.83
2022-08-17T09:41:13.621Z,99906.17
2022-08-17T09:43:57.559Z,99908.69
2022-08-17T09:47:04.684Z,99908.57
2022-08-17T09:50:07.139Z,99902.59
2022-08-17T09:52:44.817Z,99903.73
2022-08-17T09:55:23.284Z,99905.30
2022-08-17T09:58:29.645Z,99901.80
2022-08-17T10:01:11.513Z,99903.89
2022-08-17T10:03:52.564Z,99906.33
2022-08-17T10:06:45.653Z,99902.14
2022-08-17T10:09:34.610Z,99903.11
2022-08-17T10:12:21.081Z,99904.61
2022-08-17T10:15:23.942Z,99905.61
2022-08-17T10:18:01.032Z,99906.80
2022-08-17T10:20:34.358Z,99908.30
2022-08-17T10:24:08.382Z,99908.20
2022-08-17T10:26:56.297Z,99911.92
2022-08-17T10:30:02.887Z,99914.94
2022-08-17T10:32:56.599Z,99914.75
2022-08-17T10:36:00.790Z,99915.67
2022-08-17T10:38:47.055Z,99914.63
2022-08-17T10:41:58.618Z,99915.70
2022-08-17T10:44:41.214Z,99911.55
2022-08-17T10:47:16.227Z,99910.33
2022-08-17T10:50:19.750Z,99910.36
2022-08-17T10:52:53.678Z,99907.70
2022-08-17T10:55:26.077Z,99905.73
2022-08-17T10:58:20.991Z,99905.10
2022-08-17T11:00:54.668Z,99905.76
2022-08-17T11:03:35.240Z,99901.76
2022-08-17T11:06:22.796Z,99902.99
2022-08-17T11:09:18.899Z,99899.69
2022-08-17T11:12:07.661Z,99902.66
2022-08-17T11:14:58.029Z,99907.55
2022-08-17T11:17:40.452Z,99906.61
2022-08-17T11:20:34.465Z,99910.67
2022-08-17T11:23:49.221Z,99908.39
2022-08-17T11:26:46.708Z,99908.10
2022-08-17T11:29:44.027Z,99910.27
2022-08-17T11:32:37.511Z,99904.55
2022-08-17T11:35:35.233Z,99906.48
2022-08-17T11:38:16.366Z,99905.86
2022-08-17T11:41:18.907Z,99908.14
2022-08-17T11:44:05.213Z,99907.61
2022-08-17T11:47:10.248Z,99901.17
2022-08-17T11:50:08.985Z,99899.63
2022-08-17T11:52:47.243Z,99898.87
2022-08-17T11:55:45.930Z,99901.10
2022-08-17T11:58:37.553Z,99899.55
2022-08-17T12:01:39.968Z,99898.08
2022-08-17T12:04:58.854Z,99894.92
2022-08-17T12:07:51.753Z,99895.55
2022-08-17T12:10:53.968Z,99893.09
2022-08-17T12:13:38.597Z,99892.70
2022-08-17T12:16:37.726Z,99893.48
2022-08-17T12:19:23.622Z,99893.30
2022-08-17T12:22:18.766Z,99889.96
2022-08-17T12:24:57.908Z,99887.20
2022-08-17T12:28:05.519Z,99887.65
2022-08-17T12:31:12.386Z,99888.51
2022-08-17T12:33:44.424Z,99895.10
2022-08-17T12:36:30.828Z,99893.86
2022-08-17T12:39:14.877Z,99889.90
2022-08-17T12:42:02.543Z,99887.63
2022-08-17T12:47:52.878Z,99890.73
2022-08-17T12:50:44.406Z,99896.55
2022-08-17T12:53:52.751Z,99897.88
2022-08-17T12:56:29.171Z,99890.48
2022-08-17T12:59:06.293Z,99891.67
2022-08-17T13:02:01.399Z,99893.72
2022-08-17T13:04:48.557Z,99892.62
2022-08-17T13:07:59.688Z,99899.48
2022-08-17T13:10:44.041Z,99899.70
2022-08-17T13:13:21.358Z,99903.23
2022-08-17T13:16:00.414Z,99894.45
2022-08-17T13:18:50.382Z,99892.46
2022-08-17T13:21:39.020Z,99887.24
2022-08-17T13:24:43.920Z,99884.47
2022-08-17T13:27:40.253Z,99883.27
2022-08-17T13:30:21.956Z,99874.98
2022-08-17T13:33:29.224Z,99863.45
2022-08-17T13:36:52.014Z,99867.91
2022-08-17T13:39:55.801Z,99871.65
2022-08-17T13:42:53.081Z,99872.91
2022-08-17T13:46:00.649Z,99882.25
2022-08-17T13:48:33.837Z,99877.77
2022-08-17T13:51:27.866Z,99881.39
2022-08-17T13:54:23.657Z,99884.91
2022-08-17T13:57:00.771Z,99885.88
2022-08-17T13:59:53.225Z,99885.95
2022-08-17T14:02:36.115Z,99886.14
2022-08-17T14:05:29.979Z,99889.42
2022-08-17T14:08:17.065Z,99885.39
2022-08-17T14:11:01.128Z,99884.72
2022-08-17T14:13:38.208Z,99889.20
2022-08-17T14:16:35.229Z,99887.30
2022-08-17T14:19:13.555Z,99889.15
2022-08-17T14:22:08.574Z,99890.57
2022-08-17T14:24:53.666Z,99890.60
2022-08-17T14:27:47.474Z,99886.00
2022-08-17T14:30:25.711Z,99889.02
2022-08-17T14:33:09.110Z,99890.39
2022-08-17T14:35:42.758Z,99890.46
2022-08-17T14:38:48.029Z,99891.08
2022-08-17T14:41:35.854Z,99891.00
2022-08-17T14:44:14.778Z,99889.30
2022-08-17T14:50:15.954Z,99892.39
2022-08-17T14:53:11.529Z,99889.62
2022-08-17T14:55:55.680Z,99889.52
2022-08-17T14:58:41.022Z,99886.65
2022-08-17T15:01:25.798Z,99887.52
2022-08-17T15:04:01.237Z,99885.38
2022-08-17T15:06:36.137Z,99879.64
2022-08-17T15:09:06.560Z,99881.61
2022-08-17T15:11:53.043Z,99886.22
2022-08-17T15:14:36.812Z,99878.58
2022-08-17T15:20:24.616Z,99883.23
2022-08-17T15:23:13.207Z,99880.52
2022-08-17T15:26:12.006Z,99881.67
2022-08-17T15:28:49.984Z,99883.04
2022-08-17T15:31:31.947Z,99881.83
2022-08-17T15:34:08.098Z,99879.77
2022-08-17T15:37:02.206Z,99875.92
2022-08-17T15:39:55.164Z,99876.70
2022-08-17T15:42:44.074Z,99877.59
2022-08-17T15:45:30.904Z,99876.30
2022-08-17T15:48:16.652Z,99876.23
2022-08-17T15:51:03.011Z,99873.98
2022-08-17T15:53:56.139Z,99873.90
2022-08-17T15:56:49.345Z,99877.02
2022-08-17T15:59:30.547Z,99873.91
2022-08-17T16:03:44.837Z,99876.88
2022-08-17T16:05:31.315Z,99873.92
2022-08-17T16:08:15.897Z,99877.51
2022-08-17T16:11:04.506Z,99881.78
2022-08-17T16:13:41.722Z,99882.95
2022-08-17T16:16:31.999Z,99887.40
2022-08-17T16:19:39.084Z,99887.52
2022-08-17T16:22:13.906Z,99888.83
2022-08-17T16:24:57.471Z,99889.52
2022-08-17T16:27:55.167Z,99899.00
2022-08-17T16:30:39.956Z,99893.61
2022-08-17T16:33:30.137Z,99893.41
2022-08-17T16:36:28.041Z,99893.69
2022-08-17T16:39:00.622Z,99897.95
2022-08-17T16:41:47.862Z,99895.24
2022-08-17T16:44:40.334Z,99899.22
2022-08-17T16:47:19.269Z,99903.23
2022-08-17T16:50:02.210Z,99907.73
2022-08-17T16:53:00.796Z,99912.67
2022-08-17T16:55:50.403Z,99910.42
2022-08-17T16:58:39.348Z,99916.52
2022-08-17T17:01:38.636Z,99922.80
2022-08-17T17:04:36.910Z,99924.24
2022-08-17T17:07:25.493Z,99927.98
2022-08-17T17:10:02.032Z,99930.27
2022-08-17T17:13:02.714Z,99931.22
2022-08-17T17:16:12.223Z,99933.44
2022-08-17T17:19:17.788Z,99937.23
2022-08-17T17:22:30.705Z,99929.31
2022-08-17T17:25:25.765Z,99929.90
2022-08-17T17:28:17.179Z,99933.41
2022-08-17T17:32:00.415Z,99934.63
2022-08-17T17:34:41.702Z,99932.38
2022-08-17T17:37:45.382Z,99939.86
2022-08-17T17:40:29.140Z,99947.20
2022-08-17T17:43:38.802Z,99948.88
2022-08-17T17:46:27.871Z,99960.77
2022-08-17T17:49:05.974Z,99967.20
2022-08-17T17:52:18.408Z,99962.58
2022-08-17T17:55:21.168Z,99966.45
2022-08-17T17:58:41.683Z,99971.21
2022-08-17T18:01:47.169Z,99973.54
2022-08-17T18:04:40.204Z,99982.69
2022-08-17T18:07:56.078Z,99982.27
2022-08-17T18:10:41.195Z,99985.72
2022-08-17T18:13:35.068Z,99986.02
2022-08-17T18:16:35.342Z,99987.24
2022-08-17T18:19:25.731Z,99993.33
2022-08-17T18:22:16.286Z,99998.79
2022-08-17T18:24:57.761Z,99995.55
2022-08-17T18:27:36.668Z,99992.66
2022-08-17T18:30:32.853Z,99995.98
2022-08-17T18:33:24.659Z,99999.98
2022-08-17T18:36:08.820Z,99993.33
2022-08-17T18:38:47.500Z,99991.34
2022-08-17T18:41:47.449Z,99990.83
2022-08-17T18:44:40.887Z,99998.40
2022-08-17T18:47:20.263Z,99997.33
2022-08-17T18:50:43.889Z,99999.59
2022-08-17T18:53:35.400Z,100004.09
2022-08-17T18:56:34.111Z,100006.21
2022-08-17T18:59:21.625Z,100005.29
2022-08-17T19:02:27.419Z,100012.60
2022-08-17T19:05:25.946Z,100012.41
2022-08-17T19:08:13.417Z,100013.77
2022-08-17T19:11:05.207Z,100012.07
2022-08-17T19:14:14.271Z,100015.55
2022-08-17T19:17:02.055Z,100022.04
2022-08-17T19:19:58.904Z,100020.44
2022-08-17T19:22:48.009Z,100021.04
2022-08-17T19:25:30.741Z,100020.57
2022-08-17T19:28:03.105Z,100024.09
2022-08-17T19:30:51.793Z,100025.99
2022-08-17T19:33:29.979Z,100025.70
2022-08-17T19:36:21.179Z,100031.58
2022-08-17T19:38:58.872Z,100034.17
2022-08-17T19:41:55.847Z,100035.50
2022-08-17T19:44:50.333Z,100039.56
2022-08-17T19:47:54.227Z,100040.92
2022-08-17T19:51:02.474Z,100042.00
2022-08-17T19:54:08.477Z,100037.64
2022-08-17T19:56:56.624Z,100042.41
2022-08-17T19:59:48.296Z,100045.45
2022-08-17T20:02:43.603Z,100047.84
2022-08-17T20:06:14.276Z,100047.29
2022-08-17T20:09:15.328Z,100047.34
2022-08-17T20:12:15.391Z,100048.21
2022-08-17T20:14:53.645Z,100045.76
2022-08-17T20:17:50.847Z,100041.16
2022-08-17T20:20:36.334Z,100045.63
2022-08-17T20:23:32.332Z,100046.26
2022-08-17T20:26:19.735Z,100046.17
2022-08-17T20:29:37.601Z,100048.58
2022-08-17T20:32:46.478Z,100052.25
2022-08-17T20:35:39.982Z,100055.59
2022-08-17T20:38:28.345Z,100055.70
2022-08-17T20:41:31.026Z,100058.13
2022-08-17T20:44:21.915Z,100059.44
2022-08-17T20:47:11.652Z,100058.42
2022-08-17T20:49:57.407Z,100055.40
2022-08-17T20:52:44.450Z,100062.08
2022-08-17T20:55:52.054Z,100066.64
2022-08-17T20:58:49.386Z,100069.85
2022-08-17T21:01:35.092Z,100068.08
2022-08-17T21:04:41.582Z,100072.06
2022-08-17T21:08:04.408Z,100078.77
2022-08-17T21:14:18.727Z,100084.83
2022-08-17T21:17:14.739Z,100095.38
2022-08-17T21:20:40.038Z,100087.15
2022-08-17T21:23:20.036Z,100075.87
2022-08-17T21:26:18.923Z,100076.30
2022-08-17T21:29:32.465Z,100084.52
2022-08-17T21:32:19.029Z,100094.02
2022-08-17T21:35:18.083Z,100104.77
2022-08-17T21:38:00.993Z,100110.92
2022-08-17T21:40:33.663Z,100109.70
2022-08-17T21:43:27.595Z,100105.04
2022-08-17T21:46:08.298Z,100108.33
2022-08-17T21:49:04.772Z,100104.94
2022-08-17T21:52:06.629Z,100095.56
2022-08-17T21:55:10.056Z,100088.98
2022-08-17T21:58:11.467Z,100091.39
2022-08-17T22:01:05.380Z,100090.67
2022-08-17T22:03:43.893Z,100091.63
2022-08-17T22:06:36.094Z,100088.10
2022-08-17T22:09:47.664Z,100084.34
2022-08-17T22:12:53.817Z,100081.23
2022-08-17T22:15:53.646Z,100079.69
2022-08-17T22:18:32.753Z,100075.48
2022-08-17T22:21:09.363Z,100080.94
2022-08-17T22:24:20.387Z,100081.95
2022-08-17T22:27:07.619Z,100078.29
2022-08-17T22:29:43.970Z,100074.23
2022-08-17T22:32:41.975Z,100074.27
2022-08-17T22:36:05.186Z,100066.22
2022-08-17T22:38:56.553Z,100063.32
2022-08-17T22:41:32.440Z,100068.88
2022-08-17T22:44:22.381Z,100070.31
2022-08-17T22:46:52.899Z,100064.73
2022-08-17T22:49:54.207Z,100062.78
2022-08-17T22:52:34.593Z,100061.05
2022-08-17T22:55:33.053Z,100058.24
2022-08-17T22:58:28.596Z,100054.39
2022-08-17T23:01:20.542Z,100052.52
2022-08-17T23:04:18.744Z,100048.29
2022-08-17T23:06:53.985Z,100045.52
2022-08-17T23:09:25.715Z,100046.48
2022-08-17T23:12:18.975Z,100044.95
2022-08-17T23:15:10.777Z,100036.92
2022-08-17T23:17:53.611Z,100038.78
2022-08-17T23:20:25.052Z,100037.70
2022-08-17T23:23:07.442Z,100035.20
2022-08-17T23:25:53.278Z,100032.14
2022-08-17T23:28:30.978Z,100031.41
2022-08-17T23:31:09.189Z,100036.46
2022-08-17T23:33:47.248Z,100036.88
2022-08-17T23:36:28.919Z,100036.39
2022-08-17T23:39:11.366Z,100037.73
2022-08-17T23:41:56.279Z,100034.39
2022-08-17T23:44:32.564Z,100031.04
2022-08-17T23:47:19.445Z,100027.16
2022-08-17T23:50:01.605Z,100023.45
2022-08-17T23:52:41.213Z,100026.02
2022-08-17T23:55:25.855Z,100030.92
2022-08-17T23:58:07.982Z,100023.90
